sensor_id;sensor_type;location;lat;lon;timestamp;pressure;altitude;pressure_sealevel;temperature;humidity
59859;BME280;45734;53.648;9.566;2024-02-28T00:03:42;53616.97;;;-145.06;100.00
59859;BME280;45734;53.648;9.566;2024-02-28T00:08:42;53596.72;;;-145.06;100.00
59859;BME280;45734;53.648;9.566;2024-02-28T00:13:42;53574.44;;;-145.06;100.00
59859;BME280;45734;53.648;9.566;2024-02-28T00:18:43;53635.19;;;-145.06;100.00
59859;BME280;45734;53.648;9.566;2024-02-28T00:23:43;53631.16;;;-145.06;100.00
59859;BME280;45734;53.648;9.566;2024-02-28T00:28:43;53578.50;;;-145.06;100.00
59859;BME280;45734;53.648;9.566;2024-02-28T00:33:43;53616.97;;;-145.06;100.00
59859;BME280;45734;53.648;9.566;2024-02-28T00:38:44;53604.81;;;-145.06;100.00
59859;BME280;45734;53.648;9.566;2024-02-28T00:43:44;53663.56;;;-145.06;100.00
59859;BME280;45734;53.648;9.566;2024-02-28T00:48:44;53637.22;;;-145.06;100.00
59859;BME280;45734;53.648;9.566;2024-02-28T00:53:45;53594.69;;;-145.06;100.00
59859;BME280;45734;53.648;9.566;2024-02-28T00:58:45;53616.97;;;-145.06;100.00
59859;BME280;45734;53.648;9.566;2024-02-28T01:03:45;53596.72;;;-145.06;100.00
59859;BME280;45734;53.648;9.566;2024-02-28T01:08:45;53635.19;;;-145.06;100.00
59859;BME280;45734;53.648;9.566;2024-02-28T01:13:46;53621.03;;;-145.06;100.00
59859;BME280;45734;53.648;9.566;2024-02-28T01:18:46;53612.94;;;-145.06;100.00
59859;BME280;45734;53.648;9.566;2024-02-28T01:23:47;53621.03;;;-145.06;100.00
59859;BME280;45734;53.648;9.566;2024-02-28T01:28:47;53596.72;;;-145.06;100.00
59859;BME280;45734;53.648;9.566;2024-02-28T01:33:48;53651.41;;;-145.06;100.00
59859;BME280;45734;53.648;9.566;2024-02-28T01:38:48;53610.91;;;-145.06;100.00
59859;BME280;45734;53.648;9.566;2024-02-28T01:43:49;53647.34;;;-145.06;100.00
59859;BME280;45734;53.648;9.566;2024-02-28T01:48:49;53608.88;;;-145.06;100.00
59859;BME280;45734;53.648;9.566;2024-02-28T01:53:51;53608.88;;;-145.06;100.00
59859;BME280;45734;53.648;9.566;2024-02-28T01:58:52;53584.56;;;-145.06;100.00
59859;BME280;45734;53.648;9.566;2024-02-28T02:03:54;53614.94;;;-145.06;100.00
59859;BME280;45734;53.648;9.566;2024-02-28T02:08:55;53586.59;;;-145.06;100.00
59859;BME280;45734;53.648;9.566;2024-02-28T02:13:55;53608.88;;;-145.06;100.00
59859;BME280;45734;53.648;9.566;2024-02-28T02:18:55;53608.88;;;-145.06;100.00
59859;BME280;45734;53.648;9.566;2024-02-28T02:23:56;53580.53;;;-145.06;100.00
59859;BME280;45734;53.648;9.566;2024-02-28T02:28:56;53572.44;;;-145.06;100.00
59859;BME280;45734;53.648;9.566;2024-02-28T02:33:57;53612.94;;;-145.06;100.00
59859;BME280;45734;53.648;9.566;2024-02-28T02:38:57;53574.44;;;-145.06;100.00
59859;BME280;45734;53.648;9.566;2024-02-28T02:43:58;53596.72;;;-145.06;100.00
59859;BME280;45734;53.648;9.566;2024-02-28T02:48:58;53570.41;;;-145.06;100.00
59859;BME280;45734;53.648;9.566;2024-02-28T02:53:58;53625.06;;;-145.06;100.00
59859;BME280;45734;53.648;9.566;2024-02-28T02:58:59;53619.00;;;-145.06;100.00
59859;BME280;45734;53.648;9.566;2024-02-28T03:03:59;53608.88;;;-145.06;100.00
59859;BME280;45734;53.648;9.566;2024-02-28T03:08:59;53584.56;;;-145.06;100.00
59859;BME280;45734;53.648;9.566;2024-02-28T03:14:00;53606.84;;;-145.06;100.00
59859;BME280;45734;53.648;9.566;2024-02-28T03:19:00;53588.63;;;-145.06;100.00
59859;BME280;45734;53.648;9.566;2024-02-28T03:24:00;53580.53;;;-145.06;100.00
59859;BME280;45734;53.648;9.566;2024-02-28T03:29:01;53608.88;;;-145.06;100.00
59859;BME280;45734;53.648;9.566;2024-02-28T03:34:01;53576.47;;;-145.06;100.00
59859;BME280;45734;53.648;9.566;2024-02-28T03:39:01;53586.59;;;-145.06;100.00
59859;BME280;45734;53.648;9.566;2024-02-28T03:44:02;53572.44;;;-145.06;100.00
59859;BME280;45734;53.648;9.566;2024-02-28T03:49:02;53610.91;;;-145.06;100.00
59859;BME280;45734;53.648;9.566;2024-02-28T03:54:02;53606.84;;;-145.06;100.00
59859;BME280;45734;53.648;9.566;2024-02-28T03:59:03;53592.69;;;-145.06;100.00
59859;BME280;45734;53.648;9.566;2024-02-28T04:04:04;53616.97;;;-145.06;100.00
59859;BME280;45734;53.648;9.566;2024-02-28T04:09:04;53612.94;;;-145.06;100.00
59859;BME280;45734;53.648;9.566;2024-02-28T04:14:04;53596.72;;;-145.06;100.00
59859;BME280;45734;53.648;9.566;2024-02-28T04:19:04;53580.53;;;-145.06;100.00
59859;BME280;45734;53.648;9.566;2024-02-28T04:24:06;53608.88;;;-145.06;100.00
59859;BME280;45734;53.648;9.566;2024-02-28T04:29:07;53604.81;;;-145.06;100.00
59859;BME280;45734;53.648;9.566;2024-02-28T04:34:13;53606.84;;;-145.06;100.00
59859;BME280;45734;53.648;9.566;2024-02-28T04:39:14;53616.97;;;-145.06;100.00
59859;BME280;45734;53.648;9.566;2024-02-28T04:44:14;53572.44;;;-145.06;100.00
59859;BME280;45734;53.648;9.566;2024-02-28T04:49:14;53594.69;;;-145.06;100.00
59859;BME280;45734;53.648;9.566;2024-02-28T04:54:15;53596.72;;;-145.06;100.00
59859;BME280;45734;53.648;9.566;2024-02-28T04:59:15;53588.63;;;-145.06;100.00
59859;BME280;45734;53.648;9.566;2024-02-28T05:04:15;53586.59;;;-145.06;100.00
59859;BME280;45734;53.648;9.566;2024-02-28T05:09:16;53572.44;;;-145.06;100.00
59859;BME280;45734;53.648;9.566;2024-02-28T05:14:16;53610.91;;;-145.06;100.00
59859;BME280;45734;53.648;9.566;2024-02-28T05:19:16;53562.31;;;-145.06;100.00
59859;BME280;45734;53.648;9.566;2024-02-28T05:24:20;53562.31;;;-145.06;100.00
59859;BME280;45734;53.648;9.566;2024-02-28T05:29:20;53546.09;;;-145.06;100.00
59859;BME280;45734;53.648;9.566;2024-02-28T05:34:20;53560.28;;;-145.06;100.00
59859;BME280;45734;53.648;9.566;2024-02-28T05:39:21;53550.16;;;-145.06;100.00
59859;BME280;45734;53.648;9.566;2024-02-28T05:44:21;53560.28;;;-145.06;100.00
59859;BME280;45734;53.648;9.566;2024-02-28T05:49:21;53542.06;;;-145.06;100.00
59859;BME280;45734;53.648;9.566;2024-02-28T05:54:22;53560.28;;;-145.06;100.00
59859;BME280;45734;53.648;9.566;2024-02-28T05:59:23;53544.06;;;-145.06;100.00
59859;BME280;45734;53.648;9.566;2024-02-28T06:04:23;53564.31;;;-145.06;100.00
59859;BME280;45734;53.648;9.566;2024-02-28T06:09:24;53552.19;;;-145.06;100.00
59859;BME280;45734;53.648;9.566;2024-02-28T06:14:24;53558.25;;;-145.06;100.00
59859;BME280;45734;53.648;9.566;2024-02-28T06:19:24;53562.31;;;-145.06;100.00
59859;BME280;45734;53.648;9.566;2024-02-28T06:24:25;53556.22;;;-145.06;100.00
59859;BME280;45734;53.648;9.566;2024-02-28T06:29:25;53535.97;;;-145.06;100.00
59859;BME280;45734;53.648;9.566;2024-02-28T06:34:26;53531.94;;;-145.06;100.00
59859;BME280;45734;53.648;9.566;2024-02-28T06:39:26;53564.31;;;-145.06;100.00
59859;BME280;45734;53.648;9.566;2024-02-28T06:44:26;53540.03;;;-145.06;100.00
59859;BME280;45734;53.648;9.566;2024-02-28T06:49:27;53519.78;;;-145.06;100.00
59859;BME280;45734;53.648;9.566;2024-02-28T06:54:27;53517.75;;;-145.06;100.00
59859;BME280;45734;53.648;9.566;2024-02-28T06:59:28;53505.59;;;-145.06;100.00
59859;BME280;45734;53.648;9.566;2024-02-28T07:04:28;53491.44;;;-145.06;100.00
59859;BME280;45734;53.648;9.566;2024-02-28T07:09:29;53473.19;;;-145.06;100.00
59859;BME280;45734;53.648;9.566;2024-02-28T07:14:31;53479.28;;;-145.06;100.00
59859;BME280;45734;53.648;9.566;2024-02-28T07:19:31;53454.97;;;-145.06;100.00
59859;BME280;45734;53.648;9.566;2024-02-28T07:24:34;53442.81;;;-145.06;100.00
59859;BME280;45734;53.648;9.566;2024-02-28T07:29:36;53331.47;;;-145.06;100.00
59859;BME280;45734;53.648;9.566;2024-02-28T07:34:37;53373.97;;;-145.06;100.00
59859;BME280;45734;53.648;9.566;2024-02-28T07:39:37;53363.84;;;-145.06;100.00
59859;BME280;45734;53.648;9.566;2024-02-28T07:44:38;53369.94;;;-145.06;100.00
59859;BME280;45734;53.648;9.566;2024-02-28T07:49:38;53307.16;;;-145.06;100.00
59859;BME280;45734;53.648;9.566;2024-02-28T07:54:41;53284.88;;;-145.06;100.00
59859;BME280;45734;53.648;9.566;2024-02-28T07:59:42;53224.13;;;-145.06;100.00
59859;BME280;45734;53.648;9.566;2024-02-28T08:04:42;53195.78;;;-145.06;100.00
59859;BME280;45734;53.648;9.566;2024-02-28T08:09:43;53195.78;;;-145.06;100.00
59859;BME280;45734;53.648;9.566;2024-02-28T08:14:43;53234.25;;;-145.06;100.00
59859;BME280;45734;53.648;9.566;2024-02-28T08:19:43;53187.69;;;-145.06;100.00
59859;BME280;45734;53.648;9.566;2024-02-28T08:24:44;53179.59;;;-145.06;100.00
59859;BME280;45734;53.648;9.566;2024-02-28T08:29:44;53244.38;;;-145.06;100.00
59859;BME280;45734;53.648;9.566;2024-02-28T08:34:45;53240.34;;;-145.06;100.00
59859;BME280;45734;53.648;9.566;2024-02-28T08:39:49;53244.38;;;-145.06;100.00
59859;BME280;45734;53.648;9.566;2024-02-28T08:44:49;53218.06;;;-145.06;100.00
59859;BME280;45734;53.648;9.566;2024-02-28T08:49:51;53258.56;;;-145.06;100.00
59859;BME280;45734;53.648;9.566;2024-02-28T08:54:51;53276.78;;;-145.06;100.00
59859;BME280;45734;53.648;9.566;2024-02-28T08:59:53;53236.28;;;-145.06;100.00
59859;BME280;45734;53.648;9.566;2024-02-28T09:04:54;53226.16;;;-145.06;100.00
59859;BME280;45734;53.648;9.566;2024-02-28T09:09:56;53234.25;;;-145.06;100.00
59859;BME280;45734;53.648;9.566;2024-02-28T09:14:57;53232.25;;;-145.06;100.00
59859;BME280;45734;53.648;9.566;2024-02-28T09:19:58;53232.25;;;-145.06;100.00
59859;BME280;45734;53.648;9.566;2024-02-28T09:25:01;53252.50;;;-145.06;100.00
59859;BME280;45734;53.648;9.566;2024-02-28T09:30:04;53224.13;;;-145.06;100.00
59859;BME280;45734;53.648;9.566;2024-02-28T09:35:05;53252.50;;;-145.06;100.00
59859;BME280;45734;53.648;9.566;2024-02-28T09:40:09;53248.44;;;-145.06;100.00
59859;BME280;45734;53.648;9.566;2024-02-28T09:45:11;53242.38;;;-145.06;100.00
59859;BME280;45734;53.648;9.566;2024-02-28T09:50:12;53207.94;;;-145.06;100.00
59859;BME280;45734;53.648;9.566;2024-02-28T09:55:13;53133.03;;;-145.06;100.00
59859;BME280;45734;53.648;9.566;2024-02-28T10:00:15;53126.94;;;-145.06;100.00
59859;BME280;45734;53.648;9.566;2024-02-28T10:05:18;53116.81;;;-145.06;100.00
59859;BME280;45734;53.648;9.566;2024-02-28T10:10:19;53126.94;;;-145.06;100.00
59859;BME280;45734;53.648;9.566;2024-02-28T10:15:19;53163.41;;;-145.06;100.00
59859;BME280;45734;53.648;9.566;2024-02-28T10:20:19;53155.28;;;-145.06;100.00
59859;BME280;45734;53.648;9.566;2024-02-28T10:25:20;53195.78;;;-145.06;100.00
59859;BME280;45734;53.648;9.566;2024-02-28T10:30:20;53222.13;;;-145.06;100.00
59859;BME280;45734;53.648;9.566;2024-02-28T10:35:21;53232.25;;;-145.06;100.00
59859;BME280;45734;53.648;9.566;2024-02-28T10:40:25;53246.41;;;-145.06;100.00
59859;BME280;45734;53.648;9.566;2024-02-28T10:45:27;53181.63;;;-145.06;100.00
59859;BME280;45734;53.648;9.566;2024-02-28T10:50:30;53209.97;;;-145.06;100.00
59859;BME280;45734;53.648;9.566;2024-02-28T10:55:33;53230.22;;;-145.06;100.00
59859;BME280;45734;53.648;9.566;2024-02-28T11:00:38;53197.81;;;-145.06;100.00
59859;BME280;45734;53.648;9.566;2024-02-28T11:05:40;53193.78;;;-145.06;100.00
59859;BME280;45734;53.648;9.566;2024-02-28T11:10:41;53175.53;;;-145.06;100.00
59859;BME280;45734;53.648;9.566;2024-02-28T11:15:42;53171.50;;;-145.06;100.00
59859;BME280;45734;53.648;9.566;2024-02-28T11:20:43;53165.41;;;-145.06;100.00
59859;BME280;45734;53.648;9.566;2024-02-28T11:25:46;53128.97;;;-145.06;100.00
59859;BME280;45734;53.648;9.566;2024-02-28T11:30:46;53124.94;;;-145.06;100.00
59859;BME280;45734;53.648;9.566;2024-02-28T11:35:56;53131.00;;;-145.06;100.00
59859;BME280;45734;53.648;9.566;2024-02-28T11:40:57;53098.59;;;-145.06;100.00
59859;BME280;45734;53.648;9.566;2024-02-28T11:45:58;53094.56;;;-145.06;100.00
59859;BME280;45734;53.648;9.566;2024-02-28T11:50:59;53076.34;;;-145.06;100.00
59859;BME280;45734;53.648;9.566;2024-02-28T11:55:59;53050.00;;;-145.06;100.00
59859;BME280;45734;53.648;9.566;2024-02-28T12:00:59;53070.25;;;-145.06;100.00
59859;BME280;45734;53.648;9.566;2024-02-28T12:05:59;53112.78;;;-145.06;100.00
59859;BME280;45734;53.648;9.566;2024-02-28T12:11:09;53096.56;;;-145.06;100.00
59859;BME280;45734;53.648;9.566;2024-02-28T12:16:10;53126.94;;;-145.06;100.00
59859;BME280;45734;53.648;9.566;2024-02-28T12:21:10;53133.03;;;-145.06;100.00
59859;BME280;45734;53.648;9.566;2024-02-28T12:26:11;53092.53;;;-145.06;100.00
59859;BME280;45734;53.648;9.566;2024-02-28T12:31:11;53124.94;;;-145.06;100.00
59859;BME280;45734;53.648;9.566;2024-02-28T12:36:13;53106.69;;;-145.06;100.00
59859;BME280;45734;53.648;9.566;2024-02-28T12:41:14;53062.16;;;-145.06;100.00
59859;BME280;45734;53.648;9.566;2024-02-28T12:46:15;53062.16;;;-145.06;100.00
59859;BME280;45734;53.648;9.566;2024-02-28T12:51:39;53054.06;;;-145.06;100.00
59859;BME280;45734;53.648;9.566;2024-02-28T12:56:39;53027.75;;;-145.06;100.00
59859;BME280;45734;53.648;9.566;2024-02-28T13:01:40;53025.72;;;-145.06;100.00
59859;BME280;45734;53.648;9.566;2024-02-28T13:06:40;53033.81;;;-145.06;100.00
59859;BME280;45734;53.648;9.566;2024-02-28T13:11:41;53025.72;;;-145.06;100.00
59859;BME280;45734;53.648;9.566;2024-02-28T13:16:41;52997.38;;;-145.06;100.00
59859;BME280;45734;53.648;9.566;2024-02-28T13:21:41;53013.56;;;-145.06;100.00
59859;BME280;45734;53.648;9.566;2024-02-28T13:26:42;53031.78;;;-145.06;100.00
59859;BME280;45734;53.648;9.566;2024-02-28T13:31:42;52993.31;;;-145.06;100.00
59859;BME280;45734;53.648;9.566;2024-02-28T13:36:42;52999.41;;;-145.06;100.00
59859;BME280;45734;53.648;9.566;2024-02-28T13:41:43;53037.88;;;-145.06;100.00
59859;BME280;45734;53.648;9.566;2024-02-28T13:46:44;53062.16;;;-145.06;100.00
59859;BME280;45734;53.648;9.566;2024-02-28T13:51:44;53039.88;;;-145.06;100.00
59859;BME280;45734;53.648;9.566;2024-02-28T13:56:45;53062.16;;;-145.06;100.00
59859;BME280;45734;53.648;9.566;2024-02-28T14:01:45;53054.06;;;-145.06;100.00
59859;BME280;45734;53.648;9.566;2024-02-28T14:06:46;53037.88;;;-145.06;100.00
59859;BME280;45734;53.648;9.566;2024-02-28T14:11:46;53031.78;;;-145.06;100.00
59859;BME280;45734;53.648;9.566;2024-02-28T14:16:47;53064.19;;;-145.06;100.00
59859;BME280;45734;53.648;9.566;2024-02-28T14:21:47;53090.50;;;-145.06;100.00
59859;BME280;45734;53.648;9.566;2024-02-28T14:26:47;53074.31;;;-145.06;100.00
59859;BME280;45734;53.648;9.566;2024-02-28T14:31:48;53072.28;;;-145.06;100.00
59859;BME280;45734;53.648;9.566;2024-02-28T14:36:48;53054.06;;;-145.06;100.00
59859;BME280;45734;53.648;9.566;2024-02-28T14:41:48;53050.00;;;-145.06;100.00
59859;BME280;45734;53.648;9.566;2024-02-28T14:46:49;53060.13;;;-145.06;100.00
59859;BME280;45734;53.648;9.566;2024-02-28T14:51:49;53031.78;;;-145.06;100.00
59859;BME280;45734;53.648;9.566;2024-02-28T14:56:50;53029.75;;;-145.06;100.00
59859;BME280;45734;53.648;9.566;2024-02-28T15:01:50;53050.00;;;-145.06;100.00
59859;BME280;45734;53.648;9.566;2024-02-28T15:06:51;53080.38;;;-145.06;100.00
59859;BME280;45734;53.648;9.566;2024-02-28T15:11:52;53070.25;;;-145.06;100.00
59859;BME280;45734;53.648;9.566;2024-02-28T15:16:53;53070.25;;;-145.06;100.00
59859;BME280;45734;53.648;9.566;2024-02-28T15:21:53;53090.50;;;-145.06;100.00
59859;BME280;45734;53.648;9.566;2024-02-28T15:26:54;53110.75;;;-145.06;100.00
59859;BME280;45734;53.648;9.566;2024-02-28T15:31:54;53086.47;;;-145.06;100.00
59859;BME280;45734;53.648;9.566;2024-02-28T15:36:55;53078.34;;;-145.06;100.00
59859;BME280;45734;53.648;9.566;2024-02-28T15:41:55;53070.25;;;-145.06;100.00
59859;BME280;45734;53.648;9.566;2024-02-28T15:46:55;53076.34;;;-145.06;100.00
59859;BME280;45734;53.648;9.566;2024-02-28T15:51:57;53090.50;;;-145.06;100.00
59859;BME280;45734;53.648;9.566;2024-02-28T15:56:57;53116.81;;;-145.06;100.00
59859;BME280;45734;53.648;9.566;2024-02-28T16:01:59;53112.78;;;-145.06;100.00
59859;BME280;45734;53.648;9.566;2024-02-28T16:07:00;53131.00;;;-145.06;100.00
59859;BME280;45734;53.648;9.566;2024-02-28T16:12:02;53131.00;;;-145.06;100.00
59859;BME280;45734;53.648;9.566;2024-02-28T16:17:02;53126.94;;;-145.06;100.00
59859;BME280;45734;53.648;9.566;2024-02-28T16:22:03;53149.22;;;-145.06;100.00
59859;BME280;45734;53.648;9.566;2024-02-28T16:27:04;53159.34;;;-145.06;100.00
59859;BME280;45734;53.648;9.566;2024-02-28T16:32:05;53169.47;;;-145.06;100.00
59859;BME280;45734;53.648;9.566;2024-02-28T16:37:06;53163.41;;;-145.06;100.00
59859;BME280;45734;53.648;9.566;2024-02-28T16:42:06;53147.19;;;-145.06;100.00
59859;BME280;45734;53.648;9.566;2024-02-28T16:47:07;53183.66;;;-145.06;100.00
59859;BME280;45734;53.648;9.566;2024-02-28T16:52:07;53143.16;;;-145.06;100.00
59859;BME280;45734;53.648;9.566;2024-02-28T16:57:09;53151.25;;;-145.06;100.00
59859;BME280;45734;53.648;9.566;2024-02-28T17:02:09;53147.19;;;-145.06;100.00
59859;BME280;45734;53.648;9.566;2024-02-28T17:07:10;53161.38;;;-145.06;100.00
59859;BME280;45734;53.648;9.566;2024-02-28T17:12:10;53139.09;;;-145.06;100.00
59859;BME280;45734;53.648;9.566;2024-02-28T17:17:11;53161.38;;;-145.06;100.00
59859;BME280;45734;53.648;9.566;2024-02-28T17:22:12;53171.50;;;-145.06;100.00
59859;BME280;45734;53.648;9.566;2024-02-28T17:27:13;53173.53;;;-145.06;100.00
59859;BME280;45734;53.648;9.566;2024-02-28T17:32:14;53189.72;;;-145.06;100.00
59859;BME280;45734;53.648;9.566;2024-02-28T17:37:14;53139.09;;;-145.06;100.00
59859;BME280;45734;53.648;9.566;2024-02-28T17:42:15;53141.13;;;-145.06;100.00
59859;BME280;45734;53.648;9.566;2024-02-28T17:47:15;53112.78;;;-145.06;100.00
59859;BME280;45734;53.648;9.566;2024-02-28T17:52:15;53167.44;;;-145.06;100.00
59859;BME280;45734;53.648;9.566;2024-02-28T17:57:16;53153.28;;;-145.06;100.00
59859;BME280;45734;53.648;9.566;2024-02-28T18:02:17;53108.72;;;-145.06;100.00
59859;BME280;45734;53.648;9.566;2024-02-28T18:07:19;53139.09;;;-145.06;100.00
59859;BME280;45734;53.648;9.566;2024-02-28T18:12:19;53126.94;;;-145.06;100.00
59859;BME280;45734;53.648;9.566;2024-02-28T18:17:19;53175.53;;;-145.06;100.00
59859;BME280;45734;53.648;9.566;2024-02-28T18:22:20;53151.25;;;-145.06;100.00
59859;BME280;45734;53.648;9.566;2024-02-28T18:27:20;53126.94;;;-145.06;100.00
59859;BME280;45734;53.648;9.566;2024-02-28T18:32:21;53126.94;;;-145.06;100.00
59859;BME280;45734;53.648;9.566;2024-02-28T18:37:21;53106.69;;;-145.06;100.00
59859;BME280;45734;53.648;9.566;2024-02-28T18:42:21;53120.88;;;-145.06;100.00
59859;BME280;45734;53.648;9.566;2024-02-28T18:47:22;53145.16;;;-145.06;100.00
59859;BME280;45734;53.648;9.566;2024-02-28T18:52:23;53098.59;;;-145.06;100.00
59859;BME280;45734;53.648;9.566;2024-02-28T18:57:24;53131.00;;;-145.06;100.00
59859;BME280;45734;53.648;9.566;2024-02-28T19:02:24;53145.16;;;-145.06;100.00
59859;BME280;45734;53.648;9.566;2024-02-28T19:07:25;53151.25;;;-145.06;100.00
59859;BME280;45734;53.648;9.566;2024-02-28T19:12:26;53141.13;;;-145.06;100.00
59859;BME280;45734;53.648;9.566;2024-02-28T19:17:29;53126.94;;;-145.06;100.00
59859;BME280;45734;53.648;9.566;2024-02-28T19:22:29;53159.34;;;-145.06;100.00
59859;BME280;45734;53.648;9.566;2024-02-28T19:27:30;53153.28;;;-145.06;100.00
59859;BME280;45734;53.648;9.566;2024-02-28T19:32:30;53163.41;;;-145.06;100.00
59859;BME280;45734;53.648;9.566;2024-02-28T19:37:30;53118.84;;;-145.06;100.00
59859;BME280;45734;53.648;9.566;2024-02-28T19:42:31;53131.00;;;-145.06;100.00
59859;BME280;45734;53.648;9.566;2024-02-28T19:47:32;53122.91;;;-145.06;100.00
59859;BME280;45734;53.648;9.566;2024-02-28T19:52:33;53167.44;;;-145.06;100.00
59859;BME280;45734;53.648;9.566;2024-02-28T19:57:33;53159.34;;;-145.06;100.00
59859;BME280;45734;53.648;9.566;2024-02-28T20:02:33;53179.59;;;-145.06;100.00
59859;BME280;45734;53.648;9.566;2024-02-28T20:07:34;53167.44;;;-145.06;100.00
59859;BME280;45734;53.648;9.566;2024-02-28T20:12:34;53163.41;;;-145.06;100.00
59859;BME280;45734;53.648;9.566;2024-02-28T20:17:34;53139.09;;;-145.06;100.00
59859;BME280;45734;53.648;9.566;2024-02-28T20:22:34;53175.53;;;-145.06;100.00
59859;BME280;45734;53.648;9.566;2024-02-28T20:27:35;53183.66;;;-145.06;100.00
59859;BME280;45734;53.648;9.566;2024-02-28T20:32:35;53175.53;;;-145.06;100.00
59859;BME280;45734;53.648;9.566;2024-02-28T20:37:36;53183.66;;;-145.06;100.00
59859;BME280;45734;53.648;9.566;2024-02-28T20:42:40;53185.66;;;-145.06;100.00
59859;BME280;45734;53.648;9.566;2024-02-28T20:47:40;53244.38;;;-145.06;100.00
59859;BME280;45734;53.648;9.566;2024-02-28T20:52:41;53199.84;;;-145.06;100.00
59859;BME280;45734;53.648;9.566;2024-02-28T20:57:44;53203.91;;;-145.06;100.00
59859;BME280;45734;53.648;9.566;2024-02-28T21:02:44;53193.78;;;-145.06;100.00
59859;BME280;45734;53.648;9.566;2024-02-28T21:07:45;53220.09;;;-145.06;100.00
59859;BME280;45734;53.648;9.566;2024-02-28T21:12:46;53232.25;;;-145.06;100.00
59859;BME280;45734;53.648;9.566;2024-02-28T21:17:46;53236.28;;;-145.06;100.00
59859;BME280;45734;53.648;9.566;2024-02-28T21:22:47;53238.31;;;-145.06;100.00
59859;BME280;45734;53.648;9.566;2024-02-28T21:27:48;53212.00;;;-145.06;100.00
59859;BME280;45734;53.648;9.566;2024-02-28T21:32:48;53207.94;;;-145.06;100.00
59859;BME280;45734;53.648;9.566;2024-02-28T21:37:48;53240.34;;;-145.06;100.00
59859;BME280;45734;53.648;9.566;2024-02-28T21:42:49;53254.50;;;-145.06;100.00
59859;BME280;45734;53.648;9.566;2024-02-28T21:47:50;53258.56;;;-145.06;100.00
59859;BME280;45734;53.648;9.566;2024-02-28T21:52:52;53268.69;;;-145.06;100.00
59859;BME280;45734;53.648;9.566;2024-02-28T21:57:53;53260.59;;;-145.06;100.00
59859;BME280;45734;53.648;9.566;2024-02-28T22:02:57;53280.84;;;-145.06;100.00
59859;BME280;45734;53.648;9.566;2024-02-28T22:07:57;53266.66;;;-145.06;100.00
59859;BME280;45734;53.648;9.566;2024-02-28T22:12:58;53260.59;;;-145.06;100.00
59859;BME280;45734;53.648;9.566;2024-02-28T22:17:58;53299.06;;;-145.06;100.00
59859;BME280;45734;53.648;9.566;2024-02-28T22:22:58;53276.78;;;-145.06;100.00
59859;BME280;45734;53.648;9.566;2024-02-28T22:27:58;53270.72;;;-145.06;100.00
59859;BME280;45734;53.648;9.566;2024-02-28T22:32:59;53278.81;;;-145.06;100.00
59859;BME280;45734;53.648;9.566;2024-02-28T22:37:59;53288.94;;;-145.06;100.00
59859;BME280;45734;53.648;9.566;2024-02-28T22:42:59;53313.22;;;-145.06;100.00
59859;BME280;45734;53.648;9.566;2024-02-28T22:48:01;53280.84;;;-145.06;100.00
59859;BME280;45734;53.648;9.566;2024-02-28T22:53:01;53309.19;;;-145.06;100.00
59859;BME280;45734;53.648;9.566;2024-02-28T22:58:01;53325.38;;;-145.06;100.00
59859;BME280;45734;53.648;9.566;2024-02-28T23:03:03;53329.44;;;-145.06;100.00
59859;BME280;45734;53.648;9.566;2024-02-28T23:08:04;53345.63;;;-145.06;100.00
59859;BME280;45734;53.648;9.566;2024-02-28T23:13:05;53357.78;;;-145.06;100.00
59859;BME280;45734;53.648;9.566;2024-02-28T23:18:05;53384.09;;;-145.06;100.00
59859;BME280;45734;53.648;9.566;2024-02-28T23:23:06;53357.78;;;-145.06;100.00
59859;BME280;45734;53.648;9.566;2024-02-28T23:28:06;53369.94;;;-145.06;100.00
59859;BME280;45734;53.648;9.566;2024-02-28T23:33:07;53371.97;;;-145.06;100.00
59859;BME280;45734;53.648;9.566;2024-02-28T23:38:07;53402.31;;;-145.06;100.00
59859;BME280;45734;53.648;9.566;2024-02-28T23:43:07;53380.06;;;-145.06;100.00
59859;BME280;45734;53.648;9.566;2024-02-28T23:48:09;53361.81;;;-145.06;100.00
59859;BME280;45734;53.648;9.566;2024-02-28T23:53:09;53363.84;;;-145.06;100.00
59859;BME280;45734;53.648;9.566;2024-02-28T23:58:11;53361.81;;;-145.06;100.00
